• Join FlightAware (Why Join?)
  • Login
  • US Flag 
10:18PM EDT


 

Airport Tracker/Info


-or-


 

Live Flight TrackerFlight Track Log ✈ N43998 ✈ 29-Sep-2013 ✈ KTCL - KJKA

Flight Track Log - Related Links

Times and Time Zones

All times are in EDT time to prevent confusion due to time zone crossing. See the N43998 flight status page for this flight to view local times or setup timezone preferences in your user account.

Time Position Orientation Groundspeed Altitude Reporting Facility
EDT Latitude Longitude Course Direction KTS MPH feet Rate Location/Type
07:32PM 33.1617 -87.6269 180° South 98 113 1,600  Level Atlanta Center
07:34PM 33.1200 -87.6228 175° South 89 102 2,500 360 Climbing Atlanta Center
07:35PM 33.0908 -87.6289 190° South 95 109 2,800 420 Climbing Atlanta Center
07:36PM 33.0658 -87.6231 169° South 95 109 3,500 540 Climbing Atlanta Center
07:37PM 33.0205 -87.6156 180° South  Level Estimated
07:37PM 33.0408 -87.6244 183° South 95 109 3,900  Level Atlanta Center
07:38PM 32.9872 -87.6157 180° South  Level FlightAware Approximate
07:38PM 33.0136 -87.6258 182° South 101 116 4,400  Level Atlanta Center
07:39PM 32.9844 -87.6222 174° South 106 122 5,000 540 Climbing Atlanta Center
07:40PM 32.9553 -87.6186 174° South 106 122 5,500 420 Climbing Atlanta Center
07:41PM 32.9325 -87.6150 172° South 101 116 5,900 300 Climbing Atlanta Center
07:42PM 32.8989 -87.6186 185° South 107 123 6,100  Climbing Atlanta Center
07:43PM 32.8633 -87.6269 191° South 117 135 6,000 -60 Descending Atlanta Center
07:44PM 32.8236 -87.6303 184° South 130 150 6,000  Level Atlanta Center
07:45PM 32.7903 -87.6217 168° South 130 150 6,000  Level Atlanta Center
07:46PM 32.7550 -87.6203 178° South 130 150 6,000  Level Atlanta Center
07:47PM 32.7194 -87.6236 185° South 135 155 6,000 -60 Level Atlanta Center
07:48PM 32.6817 -87.6294 187° South 141 162 5,900  Descending Atlanta Center
07:49PM 32.6461 -87.6331 185° South 141 162 6,000  Climbing Atlanta Center
07:50PM 32.6083 -87.6364 184° South 141 162 6,000 -60 Level Atlanta Center
07:51PM 32.5750 -87.6400 185° South 141 162 5,900  Descending Atlanta Center
07:52PM 32.5369 -87.6483 190° South 141 162 6,000  Climbing Atlanta Center
07:53PM 32.5017 -87.6494 182° South 141 162 6,000  Level Atlanta Center
07:54PM 32.4614 -87.6625 195° South 141 162 6,000  Level Atlanta Center
07:55PM 32.4258 -87.6683 188° South 141 162 6,000  Level Atlanta Center
07:56PM 32.3883 -87.6717 184° South 141 162 6,000  Level Atlanta Center
07:57PM 32.3525 -87.6778 188° South 141 162 6,000  Level Atlanta Center
07:58PM 32.3150 -87.6786 181° South 141 162 6,000  Level Atlanta Center
07:59PM 32.2814 -87.6847 189° South 141 162 6,000 -60 Level Atlanta Center
08:00PM 32.2439 -87.6856 181° South 141 162 5,900  Descending Atlanta Center
08:01PM 32.2061 -87.6864 181° South 141 162 6,000  Climbing Atlanta Center
08:02PM 32.1706 -87.6900 185° South 141 162 6,000  Level Atlanta Center
08:03PM 32.1350 -87.6908 181° South 141 162 6,000  Level Atlanta Center
08:04PM 32.0975 -87.6942 184° South 141 162 6,000  Level Atlanta Center
08:05PM 32.0619 -87.6978 185° South 141 162 6,000 -60 Level Atlanta Center
08:06PM 32.0242 -87.7011 184° South 141 162 5,900 -60 Descending Atlanta Center
08:07PM 31.9886 -87.7044 185° South 141 162 5,900  Level Atlanta Center
08:08PM 31.9531 -87.7081 185° South 141 162 5,900  Level Atlanta Center
08:09PM 31.9156 -87.7089 181° South 141 162 5,900  Level Atlanta Center
08:10PM 31.8797 -87.7122 185° South 141 162 6,000  Climbing Atlanta Center
08:11PM 31.8442 -87.7181 188° South 141 162 6,000 -60 Level Atlanta Center
08:12PM 31.8067 -87.7192 181° South 141 162 5,900 -60 Descending Atlanta Center
08:13PM 31.7711 -87.7200 181° South 141 162 5,900  Level Atlanta Center
08:14PM 31.7333 -87.7233 184° South 141 162 6,000  Climbing Atlanta Center
08:16PM 31.6836 -87.7247 181° South 135 155 5,900 -60 Descending Houston Center
08:17PM 31.6378 -87.7281 184° South 137 158 5,900  Level Houston Center
08:18PM 31.6017 -87.7289 181° South 133 153 6,000  Climbing Houston Center
08:19PM 31.5647 -87.7292 180° South 132 152 6,000  Level Houston Center
08:20PM 31.5272 -87.7306 182° South 133 153 6,000  Level Houston Center
08:21PM 31.4900 -87.7303 180° South 134 154 6,000 -60 Level Houston Center
08:22PM 31.4533 -87.7303 180° South 133 153 5,900  Descending Houston Center
08:23PM 31.4167 -87.7308 181° South 132 152 6,000  Climbing Houston Center
08:24PM 31.3814 -87.7289 177° South 129 148 6,000  Level Houston Center
08:25PM 31.3369 -87.7269 178° South 131 151 6,000  Level Houston Center
08:26PM 31.3000 -87.7250 177° South 132 152 6,100  Climbing Houston Center
08:27PM 31.2628 -87.7222 176° South 133 153 6,000 -120 Descending Houston Center
08:28PM 31.2256 -87.7208 178° South 134 154 5,900 -60 Descending Houston Center
08:29PM 31.1875 -87.7169 175° South 135 155 5,900  Level Houston Center
08:30PM 31.1503 -87.7128 175° South 135 155 6,000  Climbing Houston Center
08:31PM 31.1133 -87.7086 174° South 132 152 5,900  Descending Houston Center
08:32PM 31.0758 -87.7033 173° South 134 154 6,000 -60 Climbing Houston Center
08:33PM 31.0300 -87.6981 174° South 135 155 5,800 -300 Descending Houston Center
08:34PM 30.9883 -87.6953 177° South 144 166 5,500 -360 Descending Houston Center
08:35PM 30.9464 -87.6917 176° South 149 171 5,100 -300 Descending Houston Center
08:36PM 30.9053 -87.6900 178° South 149 171 5,000 -120 Descending Houston Center
08:37PM 30.8653 -87.6875 177° South 145 167 4,900  Descending Houston Center
08:38PM 30.8278 -87.6850 177° South 139 160 5,000  Climbing Houston Center
08:39PM 30.7906 -87.6836 178° South 136 157 4,900  Descending Houston Center
08:40PM 30.7528 -87.6814 177° South 135 155 5,000  Climbing Houston Center
08:41PM 30.7072 -87.6789 177° South 135 155 5,000 -60 Level Houston Center
08:42PM 30.6683 -87.6783 179° South 138 159 4,900 -300 Descending Houston Center
08:43PM 30.6281 -87.6803 182° South 140 161 4,500 -420 Descending Houston Center
08:44PM 30.5861 -87.6833 184° South 144 166 4,100 -480 Descending Houston Center
08:46PM 30.4994 -87.6947 186° South 150 173 3,200 -480 Descending Jacksonville Center
08:47PM 30.4661 -87.6953 181° South 142 163 2,800 -180 Descending Jacksonville Center
08:48PM 30.4403 -87.6653 135° Southeast 126 145 2,900 60 Climbing Jacksonville Center
08:49PM 30.4161 -87.6397 138° Southeast 122 140 3,000 60 Climbing Jacksonville Center
08:50PM 30.3900 -87.6097 135° Southeast 123 142 3,100 60 Climbing Jacksonville Center